createdAt,value
2017-12-26T00:02:03.549Z,8.00
2017-12-26T00:04:31.369Z,8.00
2017-12-26T00:09:45.992Z,8.00
2017-12-26T00:12:16.064Z,8.00
2017-12-26T00:17:25.346Z,7.90
2017-12-26T00:19:54.804Z,7.80
2017-12-26T00:22:32.727Z,7.80
2017-12-26T00:25:15.668Z,7.80
2017-12-26T00:27:50.068Z,7.80
2017-12-26T00:35:35.228Z,7.80
2017-12-26T00:38:03.832Z,7.70
2017-12-26T00:43:16.955Z,7.60
2017-12-26T00:45:44.473Z,7.60
2017-12-26T00:48:13.602Z,7.50
2017-12-26T00:50:41.080Z,7.60
2017-12-26T00:53:15.984Z,7.50
2017-12-26T00:55:45.570Z,7.60
2017-12-26T00:58:14.077Z,7.60
2017-12-26T01:00:46.434Z,7.50
2017-12-26T01:03:14.166Z,7.40
2017-12-26T01:05:43.983Z,7.30
2017-12-26T01:08:13.056Z,7.20
2017-12-26T01:10:49.756Z,7.20
2017-12-26T01:13:17.389Z,7.00
2017-12-26T01:15:48.617Z,7.10
2017-12-26T01:18:22.902Z,7.10
2017-12-26T01:20:50.628Z,7.10
2017-12-26T01:23:18.342Z,7.00
2017-12-26T01:25:45.960Z,7.10
2017-12-26T01:28:15.293Z,7.20
2017-12-26T01:30:59.354Z,7.20
2017-12-26T01:33:26.979Z,7.30
2017-12-26T01:35:56.912Z,7.40
2017-12-26T01:38:24.520Z,7.40
2017-12-26T01:40:52.838Z,7.40
2017-12-26T01:43:24.216Z,7.40
2017-12-26T01:45:53.519Z,7.40
2017-12-26T01:48:34.645Z,7.50
2017-12-26T01:53:48.151Z,7.50
2017-12-26T01:56:15.737Z,7.50
2017-12-26T01:58:48.608Z,7.50
2017-12-26T02:01:16.168Z,7.40
2017-12-26T02:03:44.157Z,7.50
2017-12-26T02:06:11.796Z,7.50
2017-12-26T02:08:39.367Z,7.50
2017-12-26T02:11:10.509Z,7.50
2017-12-26T02:13:38.262Z,7.50
2017-12-26T02:16:05.729Z,7.40
2017-12-26T02:18:33.204Z,7.50
2017-12-26T02:21:00.746Z,7.50
2017-12-26T02:23:28.260Z,7.50
2017-12-26T02:25:55.766Z,7.50
2017-12-26T02:28:23.320Z,7.50
2017-12-26T02:30:50.858Z,7.50
2017-12-26T02:33:18.350Z,7.50
2017-12-26T02:35:45.798Z,7.50
2017-12-26T02:38:13.246Z,7.50
2017-12-26T02:40:41.469Z,7.40
2017-12-26T02:43:08.923Z,7.40
2017-12-26T02:45:36.455Z,7.40
2017-12-26T02:48:03.913Z,7.30
2017-12-26T02:50:31.646Z,7.40
2017-12-26T02:52:59.379Z,7.40
2017-12-26T02:55:26.878Z,7.40
2017-12-26T02:57:57.423Z,7.30
2017-12-26T03:00:26.406Z,7.20
2017-12-26T03:02:53.965Z,7.20
2017-12-26T03:05:21.461Z,7.20
2017-12-26T03:07:48.986Z,7.20
2017-12-26T03:10:17.048Z,7.20
2017-12-26T03:12:44.706Z,7.20
2017-12-26T03:15:12.866Z,7.20
2017-12-26T03:17:40.430Z,7.10
2017-12-26T03:20:08.400Z,7.20
2017-12-26T03:22:36.095Z,7.20
2017-12-26T03:25:03.728Z,7.10
2017-12-26T03:27:31.288Z,7.10
2017-12-26T03:29:58.796Z,7.10
2017-12-26T03:32:26.266Z,7.10
2017-12-26T03:34:53.740Z,7.20
2017-12-26T03:37:21.389Z,7.20
2017-12-26T03:39:48.941Z,7.10
2017-12-26T03:42:16.550Z,7.10
2017-12-26T03:44:44.006Z,7.10
2017-12-26T03:47:11.462Z,7.10
2017-12-26T03:49:39.063Z,7.10
2017-12-26T03:52:06.777Z,7.10
2017-12-26T03:54:34.287Z,7.10
2017-12-26T03:57:01.762Z,7.10
2017-12-26T03:59:29.247Z,7.10
2017-12-26T04:01:56.720Z,7.20
2017-12-26T04:04:24.174Z,7.20
2017-12-26T04:06:52.721Z,7.20
2017-12-26T04:09:20.223Z,7.20
2017-12-26T04:11:47.698Z,7.10
2017-12-26T04:14:15.276Z,7.10
2017-12-26T04:16:42.800Z,7.10
2017-12-26T04:19:10.254Z,7.10
2017-12-26T04:21:37.733Z,7.10
2017-12-26T04:24:05.187Z,7.00
2017-12-26T04:26:32.677Z,7.00
2017-12-26T04:29:00.188Z,7.00
2017-12-26T04:31:27.645Z,7.00
2017-12-26T04:33:55.160Z,6.90
2017-12-26T04:36:22.626Z,6.80
2017-12-26T04:38:50.078Z,6.70
2017-12-26T04:41:17.581Z,6.70
2017-12-26T04:43:45.150Z,6.60
2017-12-26T04:46:12.635Z,6.50
2017-12-26T04:48:40.118Z,6.40
2017-12-26T04:51:07.579Z,6.40
2017-12-26T04:53:35.061Z,6.30
2017-12-26T04:56:02.536Z,6.20
2017-12-26T04:58:30.019Z,6.10
2017-12-26T05:00:57.831Z,6.00
2017-12-26T05:03:25.286Z,5.90
2017-12-26T05:05:53.852Z,5.80
2017-12-26T05:08:22.098Z,5.70
2017-12-26T05:10:49.555Z,5.70
2017-12-26T05:13:17.012Z,5.70
2017-12-26T05:15:44.502Z,5.60
2017-12-26T05:18:11.971Z,5.60
2017-12-26T05:20:39.518Z,5.50
2017-12-26T05:23:07.752Z,5.40
2017-12-26T05:25:35.190Z,5.40
2017-12-26T05:28:02.678Z,5.40
2017-12-26T05:30:30.142Z,5.30
2017-12-26T05:32:57.616Z,5.30
2017-12-26T05:35:25.954Z,5.30
2017-12-26T05:37:53.426Z,5.30
2017-12-26T05:40:20.896Z,5.30
2017-12-26T05:42:48.391Z,5.20
2017-12-26T05:45:15.858Z,5.10
2017-12-26T05:47:43.310Z,5.10
2017-12-26T05:50:10.852Z,5.10
2017-12-26T05:52:38.347Z,5.00
2017-12-26T05:55:05.847Z,4.90
2017-12-26T05:57:33.419Z,5.00
2017-12-26T06:00:01.691Z,4.90
2017-12-26T06:02:29.915Z,4.90
2017-12-26T06:04:57.414Z,4.90
2017-12-26T06:07:24.878Z,4.90
2017-12-26T06:09:53.128Z,4.80
2017-12-26T06:12:20.628Z,4.80
2017-12-26T06:14:48.859Z,4.70
2017-12-26T06:17:16.378Z,4.70
2017-12-26T06:19:44.034Z,4.70
2017-12-26T06:22:11.548Z,4.70
2017-12-26T06:24:39.042Z,4.70
2017-12-26T06:27:06.521Z,4.70
2017-12-26T06:29:33.989Z,4.80
2017-12-26T06:32:01.647Z,4.70
2017-12-26T06:34:29.110Z,4.70
2017-12-26T06:36:56.582Z,4.70
2017-12-26T06:39:24.050Z,4.60
2017-12-26T06:41:51.515Z,4.60
2017-12-26T06:44:19.030Z,4.60
2017-12-26T06:46:46.486Z,4.50
2017-12-26T06:49:14.118Z,4.50
2017-12-26T06:51:41.606Z,4.50
2017-12-26T06:54:09.114Z,4.50
2017-12-26T06:56:36.584Z,4.50
2017-12-26T06:59:04.084Z,4.40
2017-12-26T07:01:31.591Z,4.50
2017-12-26T07:03:59.064Z,4.50
2017-12-26T07:06:26.539Z,4.50
2017-12-26T07:08:54.006Z,4.50
2017-12-26T07:11:21.465Z,4.50
2017-12-26T07:13:48.984Z,4.60
2017-12-26T07:16:16.443Z,4.60
2017-12-26T07:18:44.681Z,4.70
2017-12-26T07:21:17.854Z,4.70
2017-12-26T07:23:45.359Z,4.80
2017-12-26T07:26:12.840Z,4.80
2017-12-26T07:28:41.262Z,5.00
2017-12-26T07:31:08.760Z,5.10
2017-12-26T07:33:36.223Z,5.30
2017-12-26T07:36:03.769Z,5.40
2017-12-26T07:38:32.008Z,5.50
2017-12-26T07:40:59.470Z,5.60
2017-12-26T07:43:26.939Z,5.70
2017-12-26T07:45:54.426Z,5.70
2017-12-26T07:48:21.887Z,5.90
2017-12-26T07:50:49.415Z,5.90
2017-12-26T07:53:16.882Z,6.10
2017-12-26T07:55:44.354Z,6.10
2017-12-26T07:58:11.822Z,6.20
2017-12-26T08:00:39.305Z,6.20
2017-12-26T08:03:06.810Z,6.30
2017-12-26T08:05:35.124Z,6.50
2017-12-26T08:08:02.598Z,6.40
2017-12-26T08:10:30.078Z,6.60
2017-12-26T08:12:57.546Z,6.60
2017-12-26T08:15:25.037Z,6.70
2017-12-26T08:17:52.607Z,6.70
2017-12-26T08:20:20.126Z,6.80
2017-12-26T08:22:47.618Z,6.80
2017-12-26T08:25:15.158Z,6.90
2017-12-26T08:27:42.609Z,7.00
2017-12-26T08:30:10.079Z,7.10
2017-12-26T08:32:37.551Z,7.20
2017-12-26T08:35:04.995Z,7.20
2017-12-26T08:37:32.468Z,7.20
2017-12-26T08:39:59.953Z,7.30
2017-12-26T08:42:27.436Z,7.40
2017-12-26T08:44:54.893Z,7.40
2017-12-26T08:47:22.354Z,7.50
2017-12-26T08:49:49.815Z,7.60
2017-12-26T08:52:17.274Z,7.60
2017-12-26T08:54:44.738Z,7.70
2017-12-26T08:57:12.971Z,7.90
2017-12-26T08:59:40.444Z,7.90
2017-12-26T09:02:07.901Z,7.90
2017-12-26T09:04:35.404Z,8.00
2017-12-26T09:07:02.865Z,8.00
2017-12-26T09:09:30.339Z,8.00
2017-12-26T09:11:57.803Z,8.10
2017-12-26T09:14:25.282Z,8.10
2017-12-26T09:16:52.762Z,8.10
2017-12-26T09:19:20.294Z,8.10
2017-12-26T09:21:47.767Z,8.10
2017-12-26T09:24:15.225Z,8.10
2017-12-26T09:26:42.802Z,8.10
2017-12-26T09:29:10.286Z,8.10
2017-12-26T09:31:42.484Z,8.20
2017-12-26T09:34:12.109Z,8.10
2017-12-26T09:36:40.912Z,8.10
2017-12-26T09:39:09.064Z,8.10
2017-12-26T09:41:39.503Z,8.10
2017-12-26T09:44:11.478Z,8.10
2017-12-26T09:46:42.800Z,8.20
2017-12-26T09:49:14.351Z,8.20
2017-12-26T09:51:43.019Z,8.20
2017-12-26T09:54:12.301Z,8.20
2017-12-26T09:56:44.231Z,8.20
2017-12-26T09:59:15.534Z,8.20
2017-12-26T10:01:46.930Z,8.20
2017-12-26T10:04:19.863Z,8.20
2017-12-26T10:06:49.758Z,8.20
2017-12-26T10:09:18.163Z,8.30
2017-12-26T10:11:45.724Z,8.30
2017-12-26T10:14:13.188Z,8.20
2017-12-26T10:16:40.648Z,8.20
2017-12-26T10:19:08.351Z,8.20
2017-12-26T10:21:36.567Z,8.20
2017-12-26T10:24:04.055Z,8.10
2017-12-26T10:26:31.504Z,8.10
2017-12-26T10:28:58.974Z,8.10
2017-12-26T10:31:27.043Z,8.20
2017-12-26T10:33:54.516Z,8.10
2017-12-26T10:36:22.004Z,8.10
2017-12-26T10:38:49.536Z,8.00
2017-12-26T10:41:17.004Z,8.00
2017-12-26T10:43:44.548Z,7.90
2017-12-26T10:46:12.089Z,7.90
2017-12-26T10:48:39.581Z,7.80
2017-12-26T10:51:07.107Z,7.90
2017-12-26T10:53:34.596Z,7.90
2017-12-26T10:56:03.153Z,7.90
2017-12-26T10:58:30.643Z,7.90
2017-12-26T11:00:58.191Z,7.90
2017-12-26T11:03:26.632Z,7.90
2017-12-26T11:05:54.127Z,7.90
2017-12-26T11:08:22.067Z,7.90
2017-12-26T11:10:49.547Z,7.90
2017-12-26T11:13:17.795Z,8.00
2017-12-26T11:15:45.297Z,8.00
2017-12-26T11:18:13.323Z,8.00
2017-12-26T11:20:40.916Z,8.00
2017-12-26T11:23:08.411Z,8.00
2017-12-26T11:25:35.903Z,8.00
2017-12-26T11:28:03.370Z,8.10
2017-12-26T11:30:31.064Z,8.10
2017-12-26T11:32:58.621Z,8.10
2017-12-26T11:35:26.059Z,8.20
2017-12-26T11:37:53.585Z,8.10
2017-12-26T11:40:21.272Z,8.20
2017-12-26T11:42:48.809Z,8.20
2017-12-26T11:45:16.290Z,8.20
2017-12-26T11:47:43.834Z,8.10
2017-12-26T11:50:11.531Z,8.00
2017-12-26T11:52:39.803Z,8.00
2017-12-26T11:55:08.052Z,8.00
2017-12-26T11:57:35.546Z,8.00
2017-12-26T12:00:03.069Z,8.00
2017-12-26T12:02:30.574Z,8.00
2017-12-26T12:04:58.039Z,8.00
2017-12-26T12:07:25.641Z,8.00
2017-12-26T12:09:53.136Z,8.00
2017-12-26T12:12:20.856Z,8.00
2017-12-26T12:14:48.385Z,8.10
2017-12-26T12:17:15.910Z,8.10
2017-12-26T12:19:43.479Z,8.10
2017-12-26T12:22:11.000Z,8.10
2017-12-26T12:24:38.535Z,8.10
2017-12-26T12:27:06.033Z,8.10
2017-12-26T12:29:34.283Z,8.10
2017-12-26T12:32:01.877Z,8.10
2017-12-26T12:34:29.614Z,8.10
2017-12-26T12:36:57.956Z,7.90
2017-12-26T12:39:25.408Z,7.90
2017-12-26T12:41:52.931Z,8.00
2017-12-26T12:44:21.167Z,8.00
2017-12-26T12:46:48.640Z,8.00
2017-12-26T12:49:16.162Z,7.80
2017-12-26T12:51:43.673Z,7.60
2017-12-26T12:54:11.175Z,7.50
2017-12-26T12:56:38.819Z,7.50
2017-12-26T12:59:06.288Z,7.50
2017-12-26T13:01:33.809Z,7.50
2017-12-26T13:04:01.336Z,7.40
2017-12-26T13:06:28.819Z,7.40
2017-12-26T13:08:56.350Z,7.30
2017-12-26T13:11:23.836Z,7.10
2017-12-26T13:13:52.108Z,6.70
2017-12-26T13:16:19.718Z,6.70
2017-12-26T13:18:47.197Z,6.70
2017-12-26T13:21:14.684Z,6.60
2017-12-26T13:23:42.967Z,6.40
2017-12-26T13:26:11.207Z,6.40
2017-12-26T13:28:38.664Z,6.40
2017-12-26T13:31:06.135Z,6.40
2017-12-26T13:33:33.591Z,6.40
2017-12-26T13:36:01.080Z,6.50
2017-12-26T13:38:28.540Z,6.60
2017-12-26T13:40:56.421Z,6.70
2017-12-26T13:43:24.031Z,6.80
2017-12-26T13:45:51.509Z,6.90
2017-12-26T13:48:19.744Z,7.00
2017-12-26T13:50:47.207Z,7.00
2017-12-26T13:53:14.709Z,7.10
2017-12-26T13:55:42.166Z,7.20
2017-12-26T13:58:09.705Z,7.20
2017-12-26T14:00:37.160Z,7.30
2017-12-26T14:03:04.618Z,7.40
2017-12-26T14:05:32.198Z,7.40
2017-12-26T14:08:00.458Z,7.40
2017-12-26T14:10:28.844Z,7.40
2017-12-26T14:12:57.107Z,7.40
2017-12-26T14:15:25.370Z,7.40
2017-12-26T14:43:04.587Z,7.20
2017-12-26T14:48:26.299Z,7.10
2017-12-26T14:54:08.890Z,6.80
2017-12-26T14:59:35.048Z,6.80
2017-12-26T15:02:02.736Z,6.80
2017-12-26T15:04:45.804Z,6.80
2017-12-26T15:10:27.547Z,6.90
2017-12-26T15:13:07.952Z,6.80
2017-12-26T15:15:48.529Z,6.80
2017-12-26T15:18:17.339Z,6.80
2017-12-26T15:26:39.029Z,6.80
2017-12-26T16:02:55.811Z,5.80
2017-12-26T16:11:53.604Z,5.80
2017-12-26T16:14:43.443Z,5.90
2017-12-26T16:26:47.536Z,6.00
2017-12-26T17:18:27.896Z,6.50
2017-12-26T17:20:59.591Z,6.50
2017-12-26T17:23:29.399Z,6.60
2017-12-26T17:57:53.221Z,6.90
2017-12-26T18:00:20.832Z,6.90
2017-12-26T18:02:48.342Z,6.90
2017-12-26T18:05:15.863Z,6.90
2017-12-26T18:07:43.842Z,6.90
2017-12-26T18:10:11.370Z,6.90
2017-12-26T18:12:38.971Z,6.80
2017-12-26T18:15:06.892Z,6.80
2017-12-26T18:17:35.480Z,6.80
2017-12-26T18:20:03.008Z,6.80
2017-12-26T18:22:30.511Z,6.70
2017-12-26T18:24:58.017Z,6.50
2017-12-26T18:27:32.987Z,6.50
2017-12-26T18:30:04.516Z,6.40
2017-12-26T18:35:52.643Z,6.50
2017-12-26T18:38:23.336Z,6.50
2017-12-26T19:37:40.850Z,6.20
2017-12-26T19:40:09.158Z,6.20
2017-12-26T19:42:36.676Z,6.20
2017-12-26T19:45:04.338Z,6.20
2017-12-26T19:47:31.989Z,6.20
2017-12-26T19:49:59.549Z,6.20
2017-12-26T19:52:27.132Z,6.20
2017-12-26T19:54:54.893Z,6.20
2017-12-26T19:57:22.829Z,6.30
2017-12-26T19:59:50.616Z,6.30
2017-12-26T20:02:18.475Z,6.40
2017-12-26T20:04:45.987Z,6.30
2017-12-26T20:07:13.551Z,6.30
2017-12-26T20:09:41.431Z,6.40
2017-12-26T20:12:09.101Z,6.40
2017-12-26T20:14:36.607Z,6.40
2017-12-26T20:17:04.246Z,6.40
2017-12-26T20:19:32.657Z,6.40
2017-12-26T20:22:00.394Z,6.40
2017-12-26T20:24:28.082Z,6.40
2017-12-26T20:26:56.741Z,6.30
2017-12-26T20:29:24.232Z,6.20
2017-12-26T20:31:51.682Z,6.20
2017-12-26T20:34:19.185Z,6.00
2017-12-26T20:36:49.667Z,6.00
2017-12-26T20:39:17.174Z,5.90
2017-12-26T20:41:45.546Z,5.90
2017-12-26T20:44:13.021Z,5.90
2017-12-26T20:46:40.937Z,6.00
2017-12-26T20:49:08.384Z,6.10
2017-12-26T20:51:35.940Z,6.10
2017-12-26T20:54:03.455Z,6.10
2017-12-26T20:56:31.005Z,6.10
2017-12-26T20:58:58.619Z,6.10
2017-12-26T21:01:26.965Z,6.00
2017-12-26T21:03:54.456Z,6.00
2017-12-26T21:06:22.049Z,5.90
2017-12-26T21:08:49.548Z,5.90
2017-12-26T21:11:17.147Z,5.90
2017-12-26T21:13:44.714Z,6.00
2017-12-26T21:16:12.256Z,6.00
2017-12-26T21:18:40.704Z,6.00
2017-12-26T21:21:08.262Z,6.00
2017-12-26T21:23:35.855Z,6.00
2017-12-26T21:26:03.317Z,5.90
2017-12-26T21:28:31.042Z,5.80
2017-12-26T21:30:58.666Z,5.70
2017-12-26T21:33:26.167Z,5.60
2017-12-26T21:35:53.650Z,5.60
2017-12-26T21:38:21.238Z,5.50
2017-12-26T21:40:49.024Z,5.40
2017-12-26T21:43:16.595Z,5.30
2017-12-26T21:45:44.207Z,5.30
2017-12-26T21:48:12.154Z,5.20
2017-12-26T21:50:39.695Z,5.20
2017-12-26T21:53:07.343Z,5.20
2017-12-26T21:55:35.112Z,5.20
2017-12-26T21:58:02.609Z,5.10
2017-12-26T22:00:30.160Z,5.10
2017-12-26T22:02:57.661Z,5.10
2017-12-26T22:05:25.159Z,5.10
2017-12-26T22:07:52.688Z,5.00
2017-12-26T22:10:20.358Z,5.00
2017-12-26T22:12:47.874Z,5.00
2017-12-26T22:15:15.480Z,5.10
2017-12-26T22:17:46.618Z,5.10
2017-12-26T22:20:14.146Z,5.10
2017-12-26T22:22:42.710Z,5.10
2017-12-26T22:25:14.003Z,5.00
2017-12-26T22:27:42.437Z,4.90
2017-12-26T22:30:09.970Z,5.00
2017-12-26T22:32:37.447Z,5.00
2017-12-26T22:35:05.083Z,4.90
2017-12-26T22:37:32.774Z,5.00
2017-12-26T22:40:00.554Z,5.00
2017-12-26T22:42:28.223Z,5.00
2017-12-26T22:44:56.495Z,5.00
2017-12-26T22:47:24.012Z,5.00
2017-12-26T22:49:53.232Z,5.00
2017-12-26T22:52:21.655Z,5.00
2017-12-26T22:54:49.137Z,5.00
2017-12-26T22:57:16.934Z,5.00
2017-12-26T22:59:50.774Z,4.90
2017-12-26T23:02:18.336Z,5.00
2017-12-26T23:04:45.828Z,4.90
2017-12-26T23:07:13.398Z,4.90
2017-12-26T23:09:41.003Z,4.90
2017-12-26T23:12:08.534Z,4.80
2017-12-26T23:14:41.566Z,4.80
2017-12-26T23:17:14.828Z,4.70
2017-12-26T23:19:48.003Z,4.70
2017-12-26T23:22:20.732Z,4.70
2017-12-26T23:24:54.849Z,4.60
2017-12-26T23:27:41.169Z,4.70
2017-12-26T23:30:14.247Z,4.70
2017-12-26T23:32:47.539Z,4.70
2017-12-26T23:35:20.573Z,4.70
2017-12-26T23:37:53.959Z,4.60
2017-12-26T23:40:27.316Z,4.60
2017-12-26T23:43:00.807Z,4.50
2017-12-26T23:45:38.441Z,4.50
2017-12-26T23:48:15.065Z,4.50
2017-12-26T23:50:49.690Z,4.40
2017-12-26T23:53:22.811Z,4.40
2017-12-26T23:55:55.967Z,4.30
2017-12-26T23:58:31.179Z,4.30
